Time,TemperatureF,DewpointF,PressureIn,WindDirection,WindDirectionDegrees,WindSpeedMPH,WindSpeedGustMPH,Humidity,HourlyPrecipIn,Conditions,Clouds,dailyrainin,SoftwareType,DateUTC
2013-01-27 00:03:00,60.7,57.7,30.24,NW,317,1.0,2.0,90,0.00,,,0.00,Wunderground v.1.15,2013-01-27 05:03:00,
2013-01-27 00:08:00,60.6,57.7,30.25,ENE,76,2.0,2.0,90,0.00,,,0.00,Wunderground v.1.15,2013-01-27 05:08:00,
2013-01-27 00:18:00,60.3,57.7,30.25,NE,47,0.0,2.0,91,0.00,,,0.00,Wunderground v.1.15,2013-01-27 05:18:00,
2013-01-27 00:23:00,60.1,57.5,30.25,NE,43,0.0,2.0,91,0.00,,,0.00,Wunderground v.1.15,2013-01-27 05:23:00,
2013-01-27 00:33:00,59.9,57.3,30.25,ESE,110,0.0,1.0,91,0.00,,,0.00,Wunderground v.1.15,2013-01-27 05:33:00,
2013-01-27 00:43:00,59.8,57.5,30.25,South,175,0.0,0.0,92,0.00,,,0.00,Wunderground v.1.15,2013-01-27 05:43:00,
2013-01-27 00:53:00,59.9,57.6,30.25,ESE,110,0.0,0.0,92,0.00,,,0.00,Wunderground v.1.15,2013-01-27 05:53:00,
2013-01-27 00:58:00,59.9,57.6,30.25,WSW,253,0.0,0.0,92,0.00,,,0.00,Wunderground v.1.15,2013-01-27 05:58:00,
2013-01-27 01:03:00,59.8,57.5,30.25,East,101,0.0,0.0,92,0.00,,,0.00,Wunderground v.1.15,2013-01-27 06:03:00,
2013-01-27 01:13:00,59.8,57.8,30.25,SE,134,1.0,2.0,93,0.00,,,0.00,Wunderground v.1.15,2013-01-27 06:13:00,
2013-01-27 01:23:00,59.8,57.8,30.25,ESE,117,0.0,0.0,93,0.00,,,0.00,Wunderground v.1.15,2013-01-27 06:23:00,
2013-01-27 01:33:00,59.8,57.8,30.25,SSE,159,0.0,0.0,93,0.00,,,0.00,Wunderground v.1.15,2013-01-27 06:33:00,
2013-01-27 01:43:00,59.9,57.9,30.26,SE,136,1.0,1.0,93,0.00,,,0.00,Wunderground v.1.15,2013-01-27 06:43:00,
2013-01-27 01:48:00,59.9,57.9,30.26,NNW,342,1.0,1.0,93,0.00,,,0.00,Wunderground v.1.15,2013-01-27 06:48:00,
2013-01-27 01:58:00,60.0,58.0,30.26,SE,134,1.0,1.0,93,0.00,,,0.00,Wunderground v.1.15,2013-01-27 06:58:00,
2013-01-27 02:03:00,60.0,58.0,30.26,SSE,155,1.0,1.0,93,0.00,,,0.00,Wunderground v.1.15,2013-01-27 07:03:00,
2013-01-27 02:13:00,60.1,58.1,30.26,NE,42,1.0,1.0,93,0.00,,,0.00,Wunderground v.1.15,2013-01-27 07:13:00,
2013-01-27 02:18:00,60.1,58.1,30.26,ENE,61,1.0,1.0,93,0.00,,,0.00,Wunderground v.1.15,2013-01-27 07:18:00,
2013-01-27 02:28:00,60.1,58.1,30.26,SE,125,1.0,1.0,93,0.00,,,0.00,Wunderground v.1.15,2013-01-27 07:28:00,
2013-01-27 02:33:00,60.1,58.1,30.26,NNW,329,0.0,1.0,93,0.00,,,0.00,Wunderground v.1.15,2013-01-27 07:33:00,
2013-01-27 02:43:00,59.9,57.9,30.27,SW,224,1.0,1.0,93,0.00,,,0.00,Wunderground v.1.15,2013-01-27 07:43:00,
2013-01-27 02:48:00,59.9,57.9,30.27,East,86,1.0,1.0,93,0.00,,,0.00,Wunderground v.1.15,2013-01-27 07:48:00,
2013-01-27 02:58:00,59.9,57.9,30.27,SE,141,1.0,1.0,93,0.00,,,0.00,Wunderground v.1.15,2013-01-27 07:58:00,
2013-01-27 03:04:00,59.9,57.9,30.27,SW,230,1.0,1.0,93,0.00,,,0.00,Wunderground v.1.15,2013-01-27 08:04:00,
2013-01-27 03:13:00,60.0,58.0,30.27,NE,40,1.0,1.0,93,0.00,,,0.00,Wunderground v.1.15,2013-01-27 08:13:00,
2013-01-27 03:23:00,59.9,57.9,30.27,ENE,75,1.0,2.0,93,0.00,,,0.00,Wunderground v.1.15,2013-01-27 08:23:00,
2013-01-27 03:33:00,59.9,57.9,30.28,ENE,76,2.0,2.0,93,0.00,,,0.00,Wunderground v.1.15,2013-01-27 08:33:00,
2013-01-27 03:43:00,59.7,57.4,30.28,ESE,113,2.0,4.0,92,0.00,,,0.00,Wunderground v.1.15,2013-01-27 08:43:00,
2013-01-27 03:53:00,59.4,57.1,30.28,ENE,65,2.0,4.0,92,0.00,,,0.00,Wunderground v.1.15,2013-01-27 08:53:00,
2013-01-27 03:58:00,59.3,57.0,30.28,NNE,19,1.0,1.0,92,0.00,,,0.00,Wunderground v.1.15,2013-01-27 08:58:00,
2013-01-27 04:03:00,59.2,56.9,30.28,ENE,74,1.0,5.0,92,0.00,,,0.00,Wunderground v.1.15,2013-01-27 09:03:00,
2013-01-27 04:13:00,59.0,56.4,30.28,SSW,202,2.0,2.0,91,0.00,,,0.00,Wunderground v.1.15,2013-01-27 09:13:00,
2013-01-27 04:18:00,58.9,56.3,30.28,SSW,209,2.0,2.0,91,0.00,,,0.00,Wunderground v.1.15,2013-01-27 09:18:00,
2013-01-27 04:28:00,58.6,56.0,30.28,West,265,2.0,2.0,91,0.00,,,0.00,Wunderground v.1.15,2013-01-27 09:28:00,
2013-01-27 04:33:00,58.4,55.8,30.28,SSW,202,2.0,2.0,91,0.00,,,0.00,Wunderground v.1.15,2013-01-27 09:33:00,
2013-01-27 04:43:00,58.0,55.1,30.28,East,92,2.0,3.0,90,0.00,,,0.00,Wunderground v.1.15,2013-01-27 09:43:00,
2013-01-27 04:48:00,57.8,54.9,30.28,SE,145,2.0,2.0,90,0.00,,,0.00,Wunderground v.1.15,2013-01-27 09:48:00,
2013-01-27 04:58:00,57.6,54.7,30.28,NE,47,2.0,3.0,90,0.00,,,0.00,Wunderground v.1.15,2013-01-27 09:58:00,
2013-01-27 05:04:00,57.6,54.7,30.28,WNW,294,3.0,3.0,90,0.00,,,0.00,Wunderground v.1.15,2013-01-27 10:04:00,
2013-01-27 05:13:00,57.5,54.6,30.28,ESE,111,2.0,3.0,90,0.00,,,0.00,Wunderground v.1.15,2013-01-27 10:13:00,
2013-01-27 05:18:00,57.4,54.5,30.28,SE,141,2.0,2.0,90,0.00,,,0.00,Wunderground v.1.15,2013-01-27 10:18:00,
2013-01-27 05:28:00,57.3,54.4,30.28,ENE,76,2.0,2.0,90,0.00,,,0.00,Wunderground v.1.15,2013-01-27 10:28:00,
2013-01-27 05:38:00,57.4,54.5,30.29,NE,55,1.0,2.0,90,0.00,,,0.00,Wunderground v.1.15,2013-01-27 10:38:00,
2013-01-27 05:48:00,57.6,54.7,30.29,NE,36,2.0,3.0,90,0.00,,,0.00,Wunderground v.1.15,2013-01-27 10:48:00,
2013-01-27 05:53:00,57.7,54.8,30.29,East,88,1.0,6.0,90,0.00,,,0.00,Wunderground v.1.15,2013-01-27 10:53:00,
2013-01-27 06:03:00,58.0,55.1,30.29,SSE,153,2.0,3.0,90,0.00,,,0.00,Wunderground v.1.15,2013-01-27 11:03:00,
2013-01-27 06:13:00,58.2,55.0,30.29,NE,43,3.0,3.0,89,0.00,,,0.00,Wunderground v.1.15,2013-01-27 11:13:00,
2013-01-27 06:18:00,58.2,55.0,30.30,East,87,3.0,5.0,89,0.00,,,0.00,Wunderground v.1.15,2013-01-27 11:18:00,
2013-01-27 06:28:00,58.2,55.0,30.30,East,95,3.0,3.0,89,0.00,,,0.00,Wunderground v.1.15,2013-01-27 11:28:00,
2013-01-27 06:33:00,58.2,55.0,30.30,ENE,61,4.0,4.0,89,0.00,,,0.00,Wunderground v.1.15,2013-01-27 11:33:00,
2013-01-27 06:43:00,58.0,54.8,30.30,ENE,78,3.0,4.0,89,0.00,,,0.00,Wunderground v.1.15,2013-01-27 11:43:00,
2013-01-27 06:48:00,57.9,54.7,30.30,East,80,2.0,2.0,89,0.00,,,0.00,Wunderground v.1.15,2013-01-27 11:48:00,
2013-01-27 06:58:00,58.0,54.8,30.30,ENE,78,3.0,8.0,89,0.00,,,0.00,Wunderground v.1.15,2013-01-27 11:58:00,
2013-01-27 07:04:00,57.8,54.6,30.30,ESE,112,4.0,8.0,89,0.00,,,0.00,Wunderground v.1.15,2013-01-27 12:04:00,
2013-01-27 07:13:00,57.7,54.8,30.31,East,98,3.0,3.0,90,0.00,,,0.00,Wunderground v.1.15,2013-01-27 12:13:00,
2013-01-27 07:23:00,57.7,54.8,30.31,SE,145,3.0,3.0,90,0.00,,,0.00,Wunderground v.1.15,2013-01-27 12:23:00,
2013-01-27 07:28:00,57.8,54.9,30.31,SE,142,3.0,3.0,90,0.00,,,0.00,Wunderground v.1.15,2013-01-27 12:28:00,
2013-01-27 07:38:00,57.9,55.0,30.32,ENE,74,3.0,7.0,90,0.00,,,0.00,Wunderground v.1.15,2013-01-27 12:38:00,
2013-01-27 07:48:00,58.2,55.0,30.32,ESE,105,4.0,4.0,89,0.00,,,0.00,Wunderground v.1.15,2013-01-27 12:48:00,
2013-01-27 07:58:00,58.7,55.5,30.32,SE,134,3.0,3.0,89,0.00,,,0.00,Wunderground v.1.15,2013-01-27 12:58:00,
2013-01-27 08:04:00,59.1,55.5,30.33,SE,126,4.0,4.0,88,0.00,,,0.00,Wunderground v.1.15,2013-01-27 13:04:00,
2013-01-27 08:13:00,59.8,55.9,30.33,East,90,3.0,5.0,87,0.00,,,0.00,Wunderground v.1.15,2013-01-27 13:13:00,
2013-01-27 08:23:00,60.3,56.1,30.33,ESE,107,4.0,8.0,86,0.00,,,0.00,Wunderground v.1.15,2013-01-27 13:23:00,
2013-01-27 08:33:00,61.1,55.9,30.34,NE,41,6.0,7.0,83,0.00,,,0.00,Wunderground v.1.15,2013-01-27 13:33:00,
2013-01-27 08:43:00,61.8,55.9,30.34,East,92,6.0,12.0,81,0.00,,,0.00,Wunderground v.1.15,2013-01-27 13:43:00,
2013-01-27 08:48:00,62.1,55.9,30.34,ENE,68,6.0,10.0,80,0.00,,,0.00,Wunderground v.1.15,2013-01-27 13:48:00,
2013-01-27 08:58:00,62.4,55.4,30.35,ESE,123,7.0,7.0,78,0.00,,,0.00,Wunderground v.1.15,2013-01-27 13:58:00,
2013-01-27 09:03:00,62.7,55.4,30.35,NNE,13,6.0,7.0,77,0.00,,,0.00,Wunderground v.1.15,2013-01-27 14:03:00,
2013-01-27 09:13:00,63.0,54.6,30.35,ESE,110,7.0,10.0,74,0.00,,,0.00,Wunderground v.1.15,2013-01-27 14:13:00,
2013-01-27 09:23:00,63.4,54.6,30.35,ENE,67,8.0,8.0,73,0.00,,,0.00,Wunderground v.1.15,2013-01-27 14:23:00,
2013-01-27 09:33:00,63.6,53.2,30.36,ESE,120,8.0,9.0,69,0.00,,,0.00,Wunderground v.1.15,2013-01-27 14:33:00,
2013-01-27 09:43:00,64.1,53.7,30.36,NW,319,8.0,9.0,69,0.00,,,0.00,Wunderground v.1.15,2013-01-27 14:43:00,
2013-01-27 09:48:00,64.3,53.1,30.36,ESE,107,8.0,11.0,67,0.00,,,0.00,Wunderground v.1.15,2013-01-27 14:48:00,
2013-01-27 09:53:00,64.4,52.8,30.36,SSW,211,8.0,11.0,66,0.00,,,0.00,Wunderground v.1.15,2013-01-27 14:53:00,
2013-01-27 10:03:00,64.9,53.3,30.36,ESE,114,8.0,9.0,66,0.00,,,0.00,Wunderground v.1.15,2013-01-27 15:03:00,
2013-01-27 10:13:00,65.4,53.3,30.37,East,89,8.0,13.0,65,0.00,,,0.00,Wunderground v.1.15,2013-01-27 15:13:00,
2013-01-27 10:18:00,65.7,53.6,30.37,ENE,71,8.0,8.0,65,0.00,,,0.00,Wunderground v.1.15,2013-01-27 15:18:00,
2013-01-27 10:23:00,65.4,53.7,30.37,ENE,61,9.0,12.0,66,0.00,,,0.00,Wunderground v.1.15,2013-01-27 15:23:00,
2013-01-27 10:33:00,65.8,54.5,30.38,ENE,64,9.0,9.0,67,0.00,,,0.00,Wunderground v.1.15,2013-01-27 15:33:00,
2013-01-27 10:38:00,66.2,54.9,30.38,East,94,9.0,9.0,67,0.00,,,0.00,Wunderground v.1.15,2013-01-27 15:38:00,
2013-01-27 10:48:00,66.2,55.3,30.38,WSW,254,9.0,9.0,68,0.00,,,0.00,Wunderground v.1.15,2013-01-27 15:48:00,
2013-01-27 10:58:00,65.8,55.3,30.38,NE,49,9.0,11.0,69,0.00,,,0.00,Wunderground v.1.15,2013-01-27 15:58:00,
2013-01-27 11:03:00,65.6,55.2,30.38,East,83,10.0,11.0,69,0.00,,,0.00,Wunderground v.1.15,2013-01-27 16:03:00,
2013-01-27 11:13:00,66.0,55.9,30.38,ESE,108,10.0,14.0,70,0.00,,,0.00,Wunderground v.1.15,2013-01-27 16:13:00,
2013-01-27 11:23:00,65.6,55.5,30.38,ENE,76,10.0,14.0,70,0.00,,,0.00,Wunderground v.1.15,2013-01-27 16:23:00,
2013-01-27 11:33:00,65.5,55.8,30.38,SSW,213,9.0,10.0,71,0.00,,,0.00,Wunderground v.1.15,2013-01-27 16:33:00,
2013-01-27 11:43:00,65.4,56.1,30.38,SE,144,9.0,10.0,72,0.00,,,0.00,Wunderground v.1.15,2013-01-27 16:43:00,
2013-01-27 11:48:00,65.5,56.6,30.38,East,86,9.0,9.0,73,0.00,,,0.00,Wunderground v.1.15,2013-01-27 16:48:00,
2013-01-27 11:58:00,65.5,56.2,30.38,SE,124,7.0,9.0,72,0.00,,,0.00,Wunderground v.1.15,2013-01-27 16:58:00,
2013-01-27 12:03:00,65.1,55.8,30.38,ESE,112,8.0,9.0,72,0.00,,,0.00,Wunderground v.1.15,2013-01-27 17:03:00,
2013-01-27 12:13:00,65.0,56.1,30.38,East,100,7.0,7.0,73,0.00,,,0.00,Wunderground v.1.15,2013-01-27 17:13:00,
2013-01-27 12:18:00,65.0,56.1,30.38,East,88,8.0,14.0,73,0.00,,,0.00,Wunderground v.1.15,2013-01-27 17:18:00,
2013-01-27 12:28:00,64.6,55.7,30.38,East,88,8.0,10.0,73,0.00,,,0.00,Wunderground v.1.15,2013-01-27 17:28:00,
2013-01-27 12:38:00,64.3,55.8,30.37,SE,126,6.0,6.0,74,0.00,,,0.00,Wunderground v.1.15,2013-01-27 17:38:00,
2013-01-27 12:43:00,63.9,55.8,30.37,ENE,57,6.0,7.0,75,0.00,,,0.00,Wunderground v.1.15,2013-01-27 17:43:00,
2013-01-27 12:53:00,63.5,55.8,30.37,NNW,333,7.0,10.0,76,0.00,,,0.00,Wunderground v.1.15,2013-01-27 17:53:00,
2013-01-27 12:58:00,63.6,55.9,30.37,ESE,106,7.0,7.0,76,0.00,,,0.00,Wunderground v.1.15,2013-01-27 17:58:00,
2013-01-27 13:08:00,63.3,55.6,30.36,East,84,8.0,10.0,76,0.00,,,0.00,Wunderground v.1.15,2013-01-27 18:08:00,
2013-01-27 13:18:00,63.4,55.7,30.36,NE,34,8.0,8.0,76,0.00,,,0.00,Wunderground v.1.15,2013-01-27 18:18:00,
2013-01-27 13:28:00,63.8,55.7,30.35,ESE,109,8.0,8.0,75,0.00,,,0.00,Wunderground v.1.15,2013-01-27 18:28:00,
2013-01-27 13:33:00,63.7,55.6,30.35,SSE,159,7.0,8.0,75,0.00,,,0.00,Wunderground v.1.15,2013-01-27 18:33:00,
2013-01-27 13:43:00,63.6,55.5,30.35,NE,35,7.0,10.0,75,0.00,,,0.00,Wunderground v.1.15,2013-01-27 18:43:00,
2013-01-27 13:48:00,63.4,55.3,30.35,ESE,103,7.0,7.0,75,0.00,,,0.00,Wunderground v.1.15,2013-01-27 18:48:00,
2013-01-27 13:58:00,63.5,55.4,30.35,South,184,8.0,8.0,75,0.00,,,0.00,Wunderground v.1.15,2013-01-27 18:58:00,
2013-01-27 14:03:00,64.0,55.5,30.35,ESE,115,7.0,8.0,74,0.00,,,0.00,Wunderground v.1.15,2013-01-27 19:03:00,
2013-01-27 14:13:00,63.3,54.9,30.34,ENE,65,8.0,8.0,74,0.00,,,0.00,Wunderground v.1.15,2013-01-27 19:13:00,
2013-01-27 14:23:00,63.1,55.0,30.34,ESE,115,7.0,11.0,75,0.00,,,0.00,Wunderground v.1.15,2013-01-27 19:23:00,
2013-01-27 14:33:00,62.6,54.9,30.34,SSE,155,7.0,7.0,76,0.00,,,0.00,Wunderground v.1.15,2013-01-27 19:33:00,
2013-01-27 14:38:00,62.3,54.6,30.34,ESE,107,8.0,8.0,76,0.00,,,0.00,Wunderground v.1.15,2013-01-27 19:38:00,
2013-01-27 14:48:00,62.0,55.1,30.34,NW,317,7.0,7.0,78,0.00,,,0.00,Wunderground v.1.15,2013-01-27 19:48:00,
2013-01-27 14:58:00,61.8,54.9,30.34,East,88,8.0,8.0,78,0.00,,,0.00,Wunderground v.1.15,2013-01-27 19:58:00,
2013-01-27 15:03:00,61.9,55.0,30.34,East,86,8.0,9.0,78,0.00,,,0.00,Wunderground v.1.15,2013-01-27 20:03:00,
2013-01-27 15:13:00,61.8,54.9,30.34,NNE,23,6.0,8.0,78,0.00,,,0.00,Wunderground v.1.15,2013-01-27 20:13:00,
2013-01-27 15:18:00,61.8,54.9,30.35,ENE,72,6.0,6.0,78,0.00,,,0.00,Wunderground v.1.15,2013-01-27 20:18:00,
2013-01-27 15:28:00,61.7,54.8,30.34,NE,34,6.0,6.0,78,0.00,,,0.00,Wunderground v.1.15,2013-01-27 20:28:00,
2013-01-27 15:33:00,61.6,54.7,30.34,SE,135,6.0,6.0,78,0.00,,,0.00,Wunderground v.1.15,2013-01-27 20:33:00,
2013-01-27 15:43:00,61.7,54.8,30.35,SE,137,8.0,8.0,78,0.00,,,0.00,Wunderground v.1.15,2013-01-27 20:43:00,
2013-01-27 15:48:00,61.7,54.8,30.34,ENE,71,8.0,8.0,78,0.00,,,0.00,Wunderground v.1.15,2013-01-27 20:48:00,
2013-01-27 15:58:00,61.7,54.8,30.35,ESE,115,6.0,7.0,78,0.00,,,0.00,Wunderground v.1.15,2013-01-27 20:58:00,
2013-01-27 16:03:00,61.7,54.8,30.35,East,95,7.0,7.0,78,0.00,,,0.00,Wunderground v.1.15,2013-01-27 21:03:00,
2013-01-27 16:13:00,61.6,54.7,30.35,NE,51,8.0,15.0,78,0.00,,,0.00,Wunderground v.1.15,2013-01-27 21:13:00,
2013-01-27 16:18:00,61.4,54.5,30.35,ENE,63,8.0,10.0,78,0.00,,,0.00,Wunderground v.1.15,2013-01-27 21:18:00,
2013-01-27 16:28:00,61.2,54.6,30.35,NNW,339,7.0,7.0,79,0.00,,,0.00,Wunderground v.1.15,2013-01-27 21:28:00,
2013-01-27 16:38:00,61.1,54.5,30.35,ENE,78,7.0,7.0,79,0.00,,,0.00,Wunderground v.1.15,2013-01-27 21:38:00,
2013-01-27 16:48:00,61.1,54.5,30.36,SSW,192,7.0,7.0,79,0.00,,,0.00,Wunderground v.1.15,2013-01-27 21:48:00,
2013-01-27 16:58:00,61.0,54.4,30.36,East,84,6.0,14.0,79,0.00,,,0.00,Wunderground v.1.15,2013-01-27 21:58:00,
2013-01-27 17:03:00,60.8,54.2,30.36,ESE,123,7.0,14.0,79,0.00,,,0.00,Wunderground v.1.15,2013-01-27 22:03:00,
2013-01-27 17:13:00,60.7,54.1,30.37,ESE,117,8.0,9.0,79,0.00,,,0.00,Wunderground v.1.15,2013-01-27 22:13:00,
2013-01-27 17:18:00,60.7,54.1,30.37,South,171,7.0,7.0,79,0.00,,,0.00,Wunderground v.1.15,2013-01-27 22:18:00,
2013-01-27 17:28:00,60.5,54.0,30.37,SE,138,7.0,7.0,79,0.00,,,0.00,Wunderground v.1.15,2013-01-27 22:28:00,
2013-01-27 17:38:00,60.3,53.8,30.37,SSE,155,7.0,7.0,79,0.00,,,0.00,Wunderground v.1.15,2013-01-27 22:38:00,
2013-01-27 17:48:00,60.0,53.8,30.37,SE,145,6.0,6.0,80,0.00,,,0.00,Wunderground v.1.15,2013-01-27 22:48:00,
2013-01-27 17:53:00,59.7,54.2,30.37,ESE,107,6.0,6.0,82,0.00,,,0.00,Wunderground v.1.15,2013-01-27 22:53:00,
2013-01-27 18:03:00,59.0,53.8,30.37,ENE,72,6.0,9.0,83,0.00,,,0.00,Wunderground v.1.15,2013-01-27 23:03:00,
2013-01-27 18:13:00,58.5,54.0,30.38,East,94,7.0,7.0,85,0.00,,,0.00,Wunderground v.1.15,2013-01-27 23:13:00,
2013-01-27 18:23:00,58.2,54.0,30.38,East,81,7.0,9.0,86,0.00,,,0.00,Wunderground v.1.15,2013-01-27 23:23:00,
2013-01-27 18:28:00,58.2,54.0,30.38,NNW,327,7.0,8.0,86,0.00,,,0.00,Wunderground v.1.15,2013-01-27 23:28:00,
2013-01-27 18:38:00,58.2,54.0,30.38,SSE,164,6.0,6.0,86,0.00,,,0.00,Wunderground v.1.15,2013-01-27 23:38:00,
2013-01-27 18:43:00,58.2,54.3,30.38,NNW,348,6.0,6.0,87,0.00,,,0.00,Wunderground v.1.15,2013-01-27 23:43:00,
2013-01-27 18:53:00,58.2,54.3,30.38,West,269,6.0,8.0,87,0.00,,,0.00,Wunderground v.1.15,2013-01-27 23:53:00,
2013-01-27 19:03:00,58.2,54.7,30.38,SE,136,6.0,7.0,88,0.00,,,0.00,Wunderground v.1.15,2013-01-28 00:03:00,
2013-01-27 19:13:00,58.3,54.8,30.38,NNW,348,6.0,9.0,88,0.00,,,0.00,Wunderground v.1.15,2013-01-28 00:13:00,
2013-01-27 19:18:00,58.3,54.8,30.38,ENE,72,5.0,9.0,88,0.00,,,0.00,Wunderground v.1.15,2013-01-28 00:18:00,
2013-01-27 19:28:00,58.4,54.9,30.39,East,83,7.0,7.0,88,0.00,,,0.00,Wunderground v.1.15,2013-01-28 00:28:00,
2013-01-27 19:38:00,58.4,54.9,30.38,ENE,76,6.0,9.0,88,0.00,,,0.00,Wunderground v.1.15,2013-01-28 00:38:00,
2013-01-27 19:48:00,58.4,55.2,30.39,NE,47,6.0,6.0,89,0.00,,,0.00,Wunderground v.1.15,2013-01-28 00:48:00,
2013-01-27 19:58:00,58.4,55.2,30.39,East,92,5.0,9.0,89,0.00,,,0.00,Wunderground v.1.15,2013-01-28 00:58:00,
2013-01-27 20:03:00,58.4,55.2,30.39,East,81,6.0,9.0,89,0.00,,,0.00,Wunderground v.1.15,2013-01-28 01:03:00,
2013-01-27 20:13:00,58.5,55.3,30.39,South,191,6.0,7.0,89,0.00,,,0.00,Wunderground v.1.15,2013-01-28 01:13:00,
2013-01-27 20:18:00,58.5,55.3,30.39,NE,55,6.0,6.0,89,0.00,,,0.00,Wunderground v.1.15,2013-01-28 01:18:00,
2013-01-27 20:28:00,58.6,55.4,30.39,East,82,5.0,7.0,89,0.00,,,0.00,Wunderground v.1.15,2013-01-28 01:28:00,
2013-01-27 20:38:00,58.6,55.7,30.39,East,82,5.0,5.0,90,0.00,,,0.00,Wunderground v.1.15,2013-01-28 01:38:00,
2013-01-27 20:43:00,58.6,55.7,30.39,ESE,113,5.0,8.0,90,0.00,,,0.00,Wunderground v.1.15,2013-01-28 01:43:00,
2013-01-27 20:53:00,58.8,55.9,30.39,SW,229,5.0,6.0,90,0.00,,,0.00,Wunderground v.1.15,2013-01-28 01:53:00,
2013-01-27 21:03:00,58.9,56.0,30.39,South,173,6.0,10.0,90,0.00,,,0.00,Wunderground v.1.15,2013-01-28 02:03:00,
2013-01-27 21:13:00,58.9,56.0,30.39,ESE,113,5.0,6.0,90,0.00,,,0.00,Wunderground v.1.15,2013-01-28 02:13:00,
2013-01-27 21:18:00,58.9,56.0,30.39,NNE,30,4.0,5.0,90,0.00,,,0.00,Wunderground v.1.15,2013-01-28 02:18:00,
2013-01-27 21:23:00,58.9,56.0,30.39,SSW,209,5.0,5.0,90,0.00,,,0.00,Wunderground v.1.15,2013-01-28 02:23:00,
2013-01-27 21:33:00,59.0,56.1,30.39,East,89,4.0,4.0,90,0.00,,,0.00,Wunderground v.1.15,2013-01-28 02:33:00,
2013-01-27 21:38:00,59.0,56.1,30.39,South,171,5.0,5.0,90,0.00,,,0.00,Wunderground v.1.15,2013-01-28 02:38:00,
2013-01-27 21:48:00,59.1,56.2,30.39,SE,129,4.0,4.0,90,0.00,,,0.00,Wunderground v.1.15,2013-01-28 02:48:00,
2013-01-27 21:53:00,59.1,56.2,30.40,ENE,70,4.0,5.0,90,0.00,,,0.00,Wunderground v.1.15,2013-01-28 02:53:00,
2013-01-27 22:03:00,59.1,56.2,30.39,SSE,159,4.0,4.0,90,0.00,,,0.00,Wunderground v.1.15,2013-01-28 03:03:00,
2013-01-27 22:13:00,59.1,56.2,30.40,NNW,333,4.0,6.0,90,0.00,,,0.00,Wunderground v.1.15,2013-01-28 03:13:00,
2013-01-27 22:23:00,59.0,56.1,30.40,SE,133,5.0,8.0,90,0.00,,,0.00,Wunderground v.1.15,2013-01-28 03:23:00,
2013-01-27 22:28:00,59.0,56.1,30.40,East,85,4.0,14.0,90,0.00,,,0.00,Wunderground v.1.15,2013-01-28 03:28:00,
2013-01-27 22:38:00,58.7,56.1,30.40,SE,141,4.0,4.0,91,0.00,,,0.00,Wunderground v.1.15,2013-01-28 03:38:00,
2013-01-27 22:43:00,58.6,56.0,30.40,WSW,248,4.0,4.0,91,0.00,,,0.00,Wunderground v.1.15,2013-01-28 03:43:00,
2013-01-27 22:53:00,58.3,56.0,30.39,ENE,61,3.0,4.0,92,0.00,,,0.00,Wunderground v.1.15,2013-01-28 03:53:00,
2013-01-27 23:03:00,58.2,55.9,30.39,NE,51,3.0,5.0,92,0.00,,,0.00,Wunderground v.1.15,2013-01-28 04:03:00,
2013-01-27 23:13:00,58.0,55.7,30.38,NE,54,5.0,5.0,92,0.00,,,0.00,Wunderground v.1.15,2013-01-28 04:13:00,
2013-01-27 23:23:00,57.9,55.6,30.38,ENE,78,4.0,4.0,92,0.00,,,0.00,Wunderground v.1.15,2013-01-28 04:23:00,
2013-01-27 23:28:00,57.9,55.9,30.38,NE,55,4.0,4.0,93,0.00,,,0.00,Wunderground v.1.15,2013-01-28 04:28:00,
2013-01-27 23:38:00,57.9,55.9,30.38,SE,140,3.0,3.0,93,0.00,,,0.00,Wunderground v.1.15,2013-01-28 04:38:00,
2013-01-27 23:48:00,58.1,56.1,30.38,East,96,2.0,2.0,93,0.00,,,0.00,Wunderground v.1.15,2013-01-28 04:48:00,
2013-01-27 23:53:00,58.2,56.2,30.38,SE,134,2.0,2.0,93,0.00,,,0.00,Wunderground v.1.15,2013-01-28 04:53:00,